Time;durP1;ratioP1;P1;durP2;ratioP2;P2;SDS_P1;SDS_P2;PMS_P1;PMS_P2;Temp;Humidity;BMP_temperature;BMP_pressure;BME280_temperature;BME280_humidity;BME280_pressure;Samples;Min_cycle;Max_cycle;Signal;HPM_P1;HPM_P2
2023/06/04 00:00:03;;;;;;;11.93;3.50;;;;;;;13.47;65.10;101974.78;5053358;28;20028;-66
2023/06/04 00:02:28;;;;;;;15.18;3.50;;;;;;;13.33;66.10;101977.28;5052103;28;20025;-65
2023/06/04 00:04:54;;;;;;;14.68;3.83;;;;;;;13.44;65.92;101975.69;5053415;28;20451;-65
2023/06/04 00:07:19;;;;;;;12.55;3.40;;;;;;;13.41;66.27;101972.97;5053465;28;20037;-64
2023/06/04 00:09:46;;;;;;;15.38;4.20;;;;;;;13.36;66.95;101972.03;5053214;28;20029;-66
2023/06/04 00:12:12;;;;;;;15.52;3.80;;;;;;;13.43;67.17;101974.78;5053127;28;20078;-73
2023/06/04 00:14:38;;;;;;;11.40;3.70;;;;;;;13.40;66.85;101972.09;5053387;28;20033;-77
2023/06/04 00:17:03;;;;;;;17.15;5.75;;;;;;;13.25;68.62;101966.56;5053063;28;20076;-72
2023/06/04 00:19:29;;;;;;;17.35;3.92;;;;;;;13.22;69.38;101963.88;5053458;28;20033;-74
2023/06/04 00:21:54;;;;;;;17.63;6.18;;;;;;;13.19;69.70;101966.50;5053015;28;20017;-77
2023/06/04 00:24:19;;;;;;;14.73;4.43;;;;;;;13.12;70.84;101962.91;5052970;28;20083;-76
2023/06/04 00:26:45;;;;;;;12.38;3.50;;;;;;;13.02;71.50;101966.31;5052205;28;20041;-75
2023/06/04 00:29:10;;;;;;;16.92;4.10;;;;;;;13.02;72.00;101961.00;5052837;28;20021;-76
2023/06/04 00:31:36;;;;;;;13.27;3.63;;;;;;;13.03;72.04;101968.09;5052829;28;20044;-76
2023/06/04 00:34:05;;;;;;;12.35;3.63;;;;;;;12.90;72.86;101967.94;5052839;28;20071;-72
2023/06/04 00:36:31;;;;;;;13.27;3.63;;;;;;;12.85;74.05;101966.09;5049455;28;20392;-77
2023/06/04 00:38:56;;;;;;;12.27;3.53;;;;;;;12.76;74.83;101968.66;5052981;28;20029;-77
2023/06/04 00:41:22;;;;;;;12.05;3.47;;;;;;;12.76;76.20;101958.91;5052746;28;20487;-78
2023/06/04 00:43:55;;;;;;;14.38;3.70;;;;;;;12.73;76.48;101964.19;5052850;28;20033;-77
2023/06/04 00:46:21;;;;;;;12.05;3.63;;;;;;;12.84;75.09;101964.31;5052797;28;20036;-77
2023/06/04 00:48:46;;;;;;;12.85;3.50;;;;;;;12.78;75.99;101964.25;5052936;28;20021;-68
2023/06/04 00:51:12;;;;;;;11.40;3.38;;;;;;;12.78;76.18;101959.81;5052609;28;20024;-76
2023/06/04 00:53:38;;;;;;;12.23;3.50;;;;;;;12.60;77.67;101960.47;5052357;28;20458;-76
2023/06/04 00:56:05;;;;;;;13.55;3.60;;;;;;;12.61;78.07;101953.41;5052967;28;20078;-77
2023/06/04 00:58:31;;;;;;;13.15;3.65;;;;;;;12.49;79.94;101957.66;5052550;28;20079;-77
2023/06/04 01:00:59;;;;;;;12.30;3.47;;;;;;;12.40;81.37;101954.88;5051192;28;20564;-76
2023/06/04 01:03:29;;;;;;;12.93;3.50;;;;;;;12.23;83.76;101961.69;5052739;28;20036;-66
2023/06/04 01:05:59;;;;;;;11.63;3.53;;;;;;;12.12;84.87;101957.13;5052598;28;20032;-65
2023/06/04 01:08:27;;;;;;;12.25;3.55;;;;;;;12.07;86.16;101963.22;5052676;28;20029;-65
2023/06/04 01:10:53;;;;;;;10.40;3.40;;;;;;;12.07;86.77;101961.44;5052541;28;20127;-66
2023/06/04 01:13:19;;;;;;;12.60;3.58;;;;;;;12.00;87.63;101964.91;5052253;28;20032;-62
2023/06/04 01:15:45;;;;;;;12.50;3.45;;;;;;;12.03;88.51;101963.16;5052348;28;20490;-66
2023/06/04 01:18:27;;;;;;;11.15;3.60;;;;;;;11.89;90.30;101969.97;5052412;28;20067;-65
2023/06/04 01:20:59;;;;;;;12.07;3.63;;;;;;;11.73;92.97;101976.75;5052775;28;20028;-65
2023/06/04 01:23:45;;;;;;;13.05;3.65;;;;;;;11.73;92.40;101971.47;5052220;28;20788;-65
2023/06/04 01:26:12;;;;;;;11.40;3.45;;;;;;;11.62;95.51;101965.97;5049909;28;20527;-64
2023/06/04 01:28:37;;;;;;;13.38;3.60;;;;;;;11.54;97.65;101977.31;5052364;28;20426;-64
2023/06/04 01:31:07;;;;;;;11.57;3.58;;;;;;;11.55;98.79;101973.78;5052409;28;20025;-65
2023/06/04 01:33:33;;;;;;;12.77;3.45;;;;;;;11.58;98.48;101977.38;5052033;28;20115;-67
2023/06/04 01:35:59;;;;;;;11.32;3.60;;;;;;;11.56;99.13;101975.56;5052099;28;20467;-65
2023/06/04 01:38:25;;;;;;;11.63;3.70;;;;;;;11.48;100.00;101981.59;5055262;28;20468;-63
2023/06/04 01:40:52;;;;;;;14.43;4.00;;;;;;;11.44;100.00;101971.81;5056203;28;20035;-66
2023/06/04 01:43:18;;;;;;;11.88;3.50;;;;;;;11.39;100.00;101970.84;5056237;28;20025;-64
2023/06/04 01:45:43;;;;;;;13.27;3.90;;;;;;;11.29;100.00;101969.78;5056044;28;20056;-64
2023/06/04 01:48:09;;;;;;;12.52;3.70;;;;;;;11.28;100.00;101970.63;5056163;28;20105;-66
2023/06/04 01:50:34;;;;;;;12.63;3.55;;;;;;;11.19;100.00;101964.28;5055793;28;20491;-66
2023/06/04 01:53:00;;;;;;;12.85;3.60;;;;;;;11.05;100.00;101964.88;5055981;28;20060;-66
2023/06/04 01:55:25;;;;;;;12.98;3.85;;;;;;;10.98;100.00;101965.66;5055832;28;20025;-65
2023/06/04 01:57:51;;;;;;;13.18;3.80;;;;;;;11.06;100.00;101973.72;5055979;28;20116;-65
2023/06/04 02:00:17;;;;;;;12.80;3.50;;;;;;;10.97;100.00;101972.66;5055861;28;20028;-62
2023/06/04 02:02:45;;;;;;;12.32;3.72;;;;;;;10.95;100.00;101976.13;5055625;28;20383;-62
2023/06/04 02:05:11;;;;;;;11.13;3.67;;;;;;;10.86;100.00;101960.97;5055491;28;20075;-64
2023/06/04 02:07:41;;;;;;;13.57;3.53;;;;;;;10.81;100.00;101960.88;5055971;28;20079;-62
2023/06/04 02:10:16;;;;;;;13.20;3.65;;;;;;;10.89;100.00;101971.66;5055348;28;20033;-64
2023/06/04 02:13:03;;;;;;;13.75;3.80;;;;;;;10.85;100.00;101972.44;5055328;28;20029;-61
2023/06/04 02:15:29;;;;;;;11.77;3.65;;;;;;;10.94;100.00;101962.03;5055482;28;20055;-62
2023/06/04 02:18:02;;;;;;;13.57;3.85;;;;;;;10.93;100.00;101965.53;5055233;28;20029;-68
2023/06/04 02:20:28;;;;;;;13.95;3.70;;;;;;;10.92;100.00;101962.84;5055508;28;20047;-63
2023/06/04 02:22:55;;;;;;;15.85;4.80;;;;;;;10.91;100.00;101967.25;5055280;28;20033;-63
2023/06/04 02:25:20;;;;;;;14.48;3.97;;;;;;;10.77;100.00;101959.03;5055438;28;20060;-61
2023/06/04 02:27:45;;;;;;;16.00;4.35;;;;;;;10.81;100.00;101962.63;5055280;28;20033;-62
2023/06/04 02:30:11;;;;;;;13.95;4.03;;;;;;;10.70;100.00;101957.09;5055297;28;20077;-62
2023/06/04 02:32:36;;;;;;;10.82;3.47;;;;;;;10.56;100.00;101961.22;5054897;28;20503;-62
2023/06/04 02:35:03;;;;;;;11.55;3.60;;;;;;;10.45;100.00;101967.13;5055155;28;20136;-61
2023/06/04 02:37:28;;;;;;;14.15;3.97;;;;;;;10.32;100.00;101967.69;5050858;28;20063;-65
2023/06/04 02:39:53;;;;;;;11.70;3.60;;;;;;;10.30;100.00;101966.78;5055122;28;20120;-61
2023/06/04 02:42:19;;;;;;;14.07;4.18;;;;;;;10.34;100.00;101973.94;5054812;28;20036;-62
2023/06/04 02:44:45;;;;;;;10.95;3.60;;;;;;;10.43;100.00;101970.63;5054685;28;20029;-63
2023/06/04 02:47:10;;;;;;;12.80;4.00;;;;;;;10.33;100.00;101972.13;5055317;28;20025;-62
2023/06/04 02:49:36;;;;;;;15.52;4.45;;;;;;;10.36;100.00;101977.50;5053679;28;20029;-61
2023/06/04 02:52:01;;;;;;;14.27;4.57;;;;;;;10.25;100.00;101974.59;5054939;28;20083;-62
2023/06/04 02:54:26;;;;;;;15.18;4.25;;;;;;;10.11;100.00;101974.25;5053577;28;20029;-61
2023/06/04 02:56:53;;;;;;;14.02;3.90;;;;;;;9.97;100.00;101975.66;5054503;28;20127;-65
2023/06/04 02:59:18;;;;;;;13.25;3.72;;;;;;;9.97;100.00;101973.03;5054774;28;20044;-61
2023/06/04 03:01:44;;;;;;;13.10;3.80;;;;;;;9.90;100.00;101972.00;5054732;28;20479;-62
2023/06/04 03:04:14;;;;;;;13.43;3.85;;;;;;;9.94;100.00;101972.94;5054706;28;20025;-63
2023/06/04 03:06:44;;;;;;;10.48;3.70;;;;;;;10.01;100.00;101976.66;5053149;28;20033;-63
2023/06/04 03:09:10;;;;;;;13.05;3.90;;;;;;;9.97;100.00;101983.59;5054472;28;20392;-64
2023/06/04 03:11:35;;;;;;;13.93;3.90;;;;;;;9.93;100.00;101974.69;5054349;28;20025;-61
2023/06/04 03:14:01;;;;;;;13.05;3.83;;;;;;;9.91;100.00;101975.50;5054464;28;20068;-62
2023/06/04 03:16:26;;;;;;;13.02;3.95;;;;;;;9.91;100.00;101975.50;5054488;28;20040;-61
2023/06/04 03:18:52;;;;;;;13.25;3.97;;;;;;;9.88;100.00;101976.31;5054254;28;20155;-62
2023/06/04 03:21:17;;;;;;;16.98;4.68;;;;;;;9.80;100.00;101979.63;5054073;28;20033;-62
2023/06/04 03:23:43;;;;;;;14.60;4.03;;;;;;;9.79;100.00;101972.56;5054667;28;20064;-72
2023/06/04 03:26:08;;;;;;;12.88;3.90;;;;;;;9.82;100.00;101970.91;5054000;28;20024;-76
2023/06/04 03:28:35;;;;;;;12.60;3.90;;;;;;;9.79;100.00;101967.28;5052645;28;20037;-75
2023/06/04 03:31:00;;;;;;;14.23;4.22;;;;;;;9.84;100.00;101961.25;5054424;28;20071;-73
2023/06/04 03:33:26;;;;;;;15.18;4.10;;;;;;;9.88;100.00;101959.59;5053790;28;20472;-69
2023/06/04 03:35:52;;;;;;;13.45;4.10;;;;;;;9.90;100.00;101971.06;5053749;28;20072;-73
2023/06/04 03:38:17;;;;;;;12.82;4.10;;;;;;;9.93;100.00;101968.50;5054030;28;20094;-75
2023/06/04 03:40:43;;;;;;;11.95;3.92;;;;;;;9.91;100.00;101963.19;5053892;28;20163;-74
2023/06/04 03:43:09;;;;;;;14.68;4.32;;;;;;;10.02;100.00;101970.47;5053978;28;20425;-72
2023/06/04 03:45:35;;;;;;;16.48;4.20;;;;;;;10.01;100.00;101969.59;5053577;28;20028;-76
2023/06/04 03:48:00;;;;;;;12.18;4.00;;;;;;;10.09;100.00;101968.06;5053704;28;20040;-74
2023/06/04 03:50:25;;;;;;;15.98;4.30;;;;;;;10.04;100.00;101964.38;5053803;28;20476;-75
2023/06/04 03:52:51;;;;;;;14.20;4.10;;;;;;;10.00;100.00;101978.38;5053366;28;20143;-75
2023/06/04 03:55:16;;;;;;;13.38;4.10;;;;;;;10.01;100.00;101979.28;5053546;28;20053;-73
2023/06/04 03:57:42;;;;;;;12.80;4.00;;;;;;;9.99;100.00;101973.06;5053621;28;20040;-74
2023/06/04 04:00:12;;;;;;;14.63;4.10;;;;;;;10.02;100.00;101966.13;5053101;28;20099;-75
2023/06/04 04:02:37;;;;;;;14.23;4.20;;;;;;;10.04;100.00;101976.72;5053614;28;20033;-74
2023/06/04 04:05:03;;;;;;;14.90;4.25;;;;;;;10.03;100.00;101972.28;5053420;28;20040;-62
2023/06/04 04:07:28;;;;;;;13.98;4.20;;;;;;;10.10;100.00;101964.53;5053515;28;20029;-62
2023/06/04 04:09:53;;;;;;;17.10;4.35;;;;;;;10.06;100.00;101972.34;5053192;28;20033;-62
2023/06/04 04:12:19;;;;;;;15.52;4.15;;;;;;;10.06;100.00;101970.63;5053283;28;20033;-63
2023/06/04 04:14:46;;;;;;;15.40;4.20;;;;;;;10.18;100.00;101966.47;5053191;28;20459;-63
2023/06/04 04:17:12;;;;;;;14.68;4.25;;;;;;;10.14;100.00;101975.19;5053023;28;20064;-65
2023/06/04 04:19:37;;;;;;;13.70;4.00;;;;;;;10.14;100.00;101975.19;5053527;28;20057;-63
2023/06/04 04:22:03;;;;;;;12.48;4.13;;;;;;;10.10;100.00;101968.94;5053066;28;20674;-62
2023/06/04 04:24:28;;;;;;;16.10;4.30;;;;;;;10.08;100.00;101968.91;5053254;28;20431;-62
2023/06/04 04:26:54;;;;;;;13.73;3.97;;;;;;;10.21;100.00;101977.13;5053234;28;20507;-66
2023/06/04 04:29:24;;;;;;;15.35;4.55;;;;;;;10.19;100.00;101978.81;5052995;28;20037;-65
2023/06/04 04:31:56;;;;;;;14.35;4.20;;;;;;;10.23;100.00;101975.41;5053210;28;20132;-65
2023/06/04 04:34:21;;;;;;;13.07;3.92;;;;;;;10.28;100.00;101973.75;5052812;28;20522;-64
2023/06/04 04:36:52;;;;;;;13.93;4.10;;;;;;;10.35;100.00;101974.84;5052824;28;20052;-65
2023/06/04 04:39:24;;;;;;;14.30;4.22;;;;;;;10.31;100.00;101979.13;5051542;28;20040;-65
2023/06/04 04:41:49;;;;;;;13.57;4.10;;;;;;;10.38;100.00;101974.91;5052868;28;20025;-65
2023/06/04 04:44:15;;;;;;;11.70;3.90;;;;;;;10.49;100.00;101978.69;5052750;28;20379;-65
2023/06/04 04:46:40;;;;;;;11.85;4.10;;;;;;;10.53;100.00;101977.91;5052479;28;20029;-64
2023/06/04 04:49:06;;;;;;;10.77;4.00;;;;;;;10.60;100.00;101977.19;5052834;28;20047;-75
2023/06/04 04:51:31;;;;;;;12.95;4.00;;;;;;;10.64;100.00;101979.06;5052873;28;20025;-72
2023/06/04 04:54:00;;;;;;;13.02;4.10;;;;;;;10.68;100.00;101979.09;5052319;28;20090;-77
2023/06/04 04:56:26;;;;;;;14.15;3.90;;;;;;;10.71;100.00;101980.06;5052970;28;20090;-69
2023/06/04 04:58:51;;;;;;;14.10;3.90;;;;;;;10.75;100.00;101983.69;5052400;28;20029;-73
2023/06/04 05:01:17;;;;;;;13.45;4.00;;;;;;;10.81;100.00;101987.31;5052462;28;20041;-75
2023/06/04 05:03:42;;;;;;;14.10;3.88;;;;;;;10.87;100.00;101985.69;5052617;28;20029;-77
2023/06/04 05:06:07;;;;;;;13.10;3.90;;;;;;;10.94;100.00;101984.97;5052356;28;20032;-75
2023/06/04 05:08:33;;;;;;;14.50;3.97;;;;;;;10.94;100.00;101987.59;5052470;28;20040;-76
2023/06/04 05:10:58;;;;;;;14.90;3.90;;;;;;;11.05;100.00;101993.09;5052812;28;20413;-74
2023/06/04 05:13:24;;;;;;;14.88;4.10;;;;;;;11.07;100.00;101991.41;5055380;28;20041;-73
2023/06/04 05:15:52;;;;;;;16.17;4.60;;;;;;;11.15;100.00;101993.34;5056574;28;20024;-72
2023/06/04 05:18:20;;;;;;;16.35;4.13;;;;;;;11.24;100.00;101991.72;5056600;28;20079;-76
2023/06/04 05:20:46;;;;;;;14.32;3.97;;;;;;;11.30;100.00;101998.03;5055591;28;20087;-77
2023/06/04 05:23:12;;;;;;;13.80;4.20;;;;;;;11.36;100.00;101994.63;5056599;28;20044;-77
2023/06/04 05:25:37;;;;;;;14.57;4.38;;;;;;;11.43;100.00;102003.56;5056587;28;20029;-76
2023/06/04 05:28:03;;;;;;;16.17;4.68;;;;;;;11.49;100.00;102004.59;5056555;28;20029;-77
2023/06/04 05:30:28;;;;;;;14.50;4.25;;;;;;;11.55;100.00;102001.16;5056132;28;20029;-77
2023/06/04 05:32:54;;;;;;;18.00;4.80;;;;;;;11.58;100.00;102000.34;5056324;28;20036;-77
2023/06/04 05:35:20;;;;;;;15.13;4.50;;;;;;;11.66;100.00;101993.41;5056012;28;20047;-66
2023/06/04 05:37:45;;;;;;;16.02;4.40;;;;;;;11.73;100.00;101997.94;5056039;28;20055;-69
2023/06/04 05:40:12;;;;;;;13.68;4.22;;;;;;;11.84;100.00;101995.50;5056269;28;20025;-65
2023/06/04 05:42:38;;;;;;;17.40;4.20;;;;;;;11.91;100.00;101989.44;5055929;28;20032;-66
2023/06/04 05:45:05;;;;;;;17.27;4.32;;;;;;;11.93;100.00;101994.78;5056145;28;20028;-66
2023/06/04 05:47:31;;;;;;;15.93;4.20;;;;;;;12.04;100.00;101993.19;5052094;28;20542;-67
2023/06/04 05:49:57;;;;;;;14.30;4.15;;;;;;;12.12;100.00;101988.94;5054900;28;20033;-67
2023/06/04 05:52:22;;;;;;;13.73;4.20;;;;;;;12.12;100.00;101991.56;5055979;28;20021;-66
2023/06/04 05:54:48;;;;;;;16.35;4.20;;;;;;;12.15;100.00;101993.41;5055711;28;20033;-64
2023/06/04 05:57:14;;;;;;;15.90;4.32;;;;;;;12.22;100.00;101995.28;5055743;28;20037;-65
2023/06/04 05:59:39;;;;;;;13.77;4.40;;;;;;;12.28;100.00;101994.47;5055951;28;20029;-66
2023/06/04 06:02:05;;;;;;;15.25;4.38;;;;;;;12.31;100.00;101997.19;5055593;28;20429;-67
2023/06/04 06:04:31;;;;;;;13.75;4.10;;;;;;;12.43;100.00;101997.34;5055762;28;20053;-66
2023/06/04 06:06:57;;;;;;;13.65;4.10;;;;;;;12.48;100.00;101994.75;5055734;28;20083;-65
2023/06/04 06:09:22;;;;;;;13.65;4.38;;;;;;;12.46;99.23;102002.69;5055590;28;20060;-67
2023/06/04 06:11:47;;;;;;;15.15;4.28;;;;;;;12.52;100.00;102005.47;5054471;28;20048;-66
2023/06/04 06:14:13;;;;;;;15.18;4.72;;;;;;;12.58;94.14;101996.69;5037545;28;20565;-66
2023/06/04 06:16:38;;;;;;;14.63;4.00;;;;;;;12.65;95.62;102002.97;5055656;28;20025;-66
2023/06/04 06:19:04;;;;;;;14.68;4.28;;;;;;;12.71;94.31;101998.66;5055190;28;20468;-64
2023/06/04 06:21:29;;;;;;;13.68;4.03;;;;;;;12.80;96.30;102003.19;5055489;28;20022;-74
2023/06/04 06:23:54;;;;;;;13.57;4.30;;;;;;;12.87;94.07;101998.84;5055293;28;20421;-69
2023/06/04 06:26:21;;;;;;;14.63;4.30;;;;;;;12.91;92.88;102003.31;5055600;28;20082;-65
2023/06/04 06:28:47;;;;;;;14.63;4.20;;;;;;;12.99;93.62;102006.06;5055430;28;20120;-63
2023/06/04 06:31:12;;;;;;;12.35;3.85;;;;;;;13.05;92.67;102008.81;5055170;28;20059;-72
2023/06/04 06:33:40;;;;;;;15.18;4.20;;;;;;;13.14;91.91;102014.25;5055461;28;20032;-63
2023/06/04 06:36:12;;;;;;;13.35;4.15;;;;;;;13.23;90.96;102014.34;5055100;28;20049;-65
2023/06/04 06:38:38;;;;;;;14.38;4.28;;;;;;;13.32;86.03;102018.00;5054912;28;20028;-62
2023/06/04 06:41:04;;;;;;;13.27;4.18;;;;;;;13.43;86.85;102016.38;5055019;28;20472;-63
2023/06/04 06:43:30;;;;;;;14.82;4.10;;;;;;;13.51;83.19;102022.66;5055336;28;20044;-63
2023/06/04 06:45:56;;;;;;;14.50;4.20;;;;;;;13.55;81.84;102024.47;5053529;28;20033;-63
2023/06/04 06:48:21;;;;;;;17.15;5.10;;;;;;;13.65;82.80;102020.16;5054608;28;20062;-68
2023/06/04 06:50:46;;;;;;;13.95;4.00;;;;;;;13.79;85.19;102025.63;5054824;28;20111;-68
2023/06/04 06:53:12;;;;;;;16.08;4.40;;;;;;;13.88;81.62;102017.72;5054456;28;20479;-69
2023/06/04 06:55:37;;;;;;;15.65;4.10;;;;;;;13.94;76.65;102024.88;5053617;28;20063;-69
2023/06/04 06:58:03;;;;;;;14.82;4.22;;;;;;;14.02;75.77;102023.16;5054454;28;20036;-68
2023/06/04 07:00:28;;;;;;;15.57;4.18;;;;;;;14.11;75.75;102032.97;5054607;28;20033;-69
2023/06/04 07:02:53;;;;;;;14.30;4.30;;;;;;;14.22;73.78;102033.09;5054634;28;20036;-68
2023/06/04 07:05:19;;;;;;;14.50;4.20;;;;;;;14.29;73.98;102037.56;5054680;28;20415;-69
2023/06/04 07:07:46;;;;;;;16.88;4.40;;;;;;;14.37;71.81;102037.63;5054455;28;20021;-72
2023/06/04 07:10:11;;;;;;;13.50;4.03;;;;;;;14.51;72.14;102038.63;5054526;28;20146;-68
2023/06/04 07:12:37;;;;;;;13.25;4.03;;;;;;;14.63;70.48;102032.50;5054231;28;20037;-69
2023/06/04 07:15:02;;;;;;;13.27;4.07;;;;;;;14.76;68.64;102033.50;5054278;28;20028;-68
2023/06/04 07:17:28;;;;;;;14.85;4.10;;;;;;;14.86;66.62;102035.31;5052878;28;20029;-68
2023/06/04 07:19:53;;;;;;;12.95;3.80;;;;;;;14.99;67.29;102034.50;5054470;28;20068;-68
2023/06/04 07:22:18;;;;;;;14.57;4.20;;;;;;;15.09;65.73;102037.22;5054058;28;20064;-69
2023/06/04 07:24:44;;;;;;;17.08;4.43;;;;;;;15.19;65.61;102043.44;5054350;28;20029;-69
2023/06/04 07:27:12;;;;;;;13.65;4.32;;;;;;;15.26;64.16;102042.59;5053996;28;20029;-69
2023/06/04 07:29:37;;;;;;;13.93;4.30;;;;;;;15.30;62.80;102039.06;5053919;28;20358;-68
2023/06/04 07:32:03;;;;;;;15.90;4.13;;;;;;;15.43;63.42;102038.22;5054454;28;20036;-68
2023/06/04 07:34:28;;;;;;;12.80;4.03;;;;;;;15.51;63.84;102033.81;5053471;28;20484;-69
2023/06/04 07:36:53;;;;;;;13.18;4.15;;;;;;;15.67;63.99;102031.19;5053891;28;20044;-70
2023/06/04 07:39:19;;;;;;;14.38;4.22;;;;;;;15.75;60.18;102039.19;5053763;28;20079;-68
2023/06/04 07:41:44;;;;;;;14.38;4.05;;;;;;;15.88;59.72;102037.47;5053727;28;20162;-68
2023/06/04 07:44:09;;;;;;;13.00;3.95;;;;;;;16.02;60.35;102044.59;5052620;28;20076;-66
2023/06/04 07:46:35;;;;;;;12.52;3.75;;;;;;;16.14;58.04;102042.81;5053709;28;20021;-67
2023/06/04 07:49:00;;;;;;;13.50;3.83;;;;;;;16.19;56.16;102041.03;5053866;28;20107;-66
2023/06/04 07:51:25;;;;;;;13.13;3.80;;;;;;;16.27;54.29;102041.94;5052622;28;20021;-67
2023/06/04 07:53:51;;;;;;;14.02;4.22;;;;;;;16.36;54.61;102043.69;5053120;28;20032;-69
2023/06/04 07:56:16;;;;;;;13.95;3.70;;;;;;;16.53;54.34;102041.91;5053402;28;20025;-70
2023/06/04 07:58:45;;;;;;;14.20;3.90;;;;;;;16.66;54.95;102029.44;5053616;28;20040;-69
2023/06/04 08:01:10;;;;;;;14.38;4.00;;;;;;;16.77;53.85;102039.19;5053371;28;20094;-70
2023/06/04 08:03:36;;;;;;;14.48;4.10;;;;;;;16.90;54.35;102036.50;5053648;28;20470;-68
2023/06/04 08:06:02;;;;;;;13.98;3.97;;;;;;;17.05;53.48;102032.91;5053321;28;20079;-69
2023/06/04 08:08:27;;;;;;;12.85;3.83;;;;;;;17.18;52.13;102040.84;5053383;28;20082;-73
2023/06/04 08:10:53;;;;;;;14.25;3.72;;;;;;;17.34;51.07;102039.00;5053360;28;20036;-69
2023/06/04 08:13:18;;;;;;;12.95;3.60;;;;;;;17.51;50.54;102038.94;5053221;28;20036;-78
2023/06/04 08:15:43;;;;;;;10.32;3.47;;;;;;;17.70;50.55;102045.94;5053168;28;20102;-75
2023/06/04 08:18:09;;;;;;;12.30;3.80;;;;;;;17.80;49.71;102040.53;5053116;28;20108;-69
2023/06/04 08:20:34;;;;;;;12.68;3.40;;;;;;;17.98;50.66;102040.41;5053135;28;20025;-74
2023/06/04 08:23:00;;;;;;;11.50;3.50;;;;;;;18.08;47.79;102041.25;5053052;28;20431;-75
2023/06/04 08:25:25;;;;;;;11.98;3.50;;;;;;;18.22;48.33;102036.66;5051712;28;20052;-78
2023/06/04 08:27:51;;;;;;;11.27;3.40;;;;;;;18.43;48.79;102043.59;5053036;28;20079;-72
2023/06/04 08:30:16;;;;;;;11.30;3.58;;;;;;;18.60;48.36;102047.91;5052718;28;20480;-72
2023/06/04 08:32:41;;;;;;;12.05;3.45;;;;;;;18.76;47.17;102040.63;5052976;28;20056;-72
2023/06/04 08:35:08;;;;;;;13.05;3.20;;;;;;;18.86;45.52;102036.97;5052487;28;20045;-78
2023/06/04 08:37:33;;;;;;;9.75;2.90;;;;;;;18.95;44.71;102042.19;5048728;28;20105;-63
2023/06/04 08:39:58;;;;;;;10.75;3.33;;;;;;;19.10;43.88;102037.56;5052418;28;20025;-63
2023/06/04 08:42:31;;;;;;;12.10;3.25;;;;;;;19.37;45.49;102046.16;5051149;28;20071;-62
2023/06/04 08:44:58;;;;;;;11.23;3.10;;;;;;;19.55;43.73;102045.03;5052821;28;20089;-62
2023/06/04 08:47:28;;;;;;;12.07;3.20;;;;;;;19.67;41.92;102045.75;5051918;28;20443;-63
2023/06/04 08:50:01;;;;;;;7.80;3.00;;;;;;;19.90;42.07;102046.34;5052520;28;20106;-62
2023/06/04 08:52:27;;;;;;;9.85;2.72;;;;;;;20.00;39.95;102046.16;5052355;28;20108;-63
2023/06/04 08:54:54;;;;;;;8.88;2.80;;;;;;;20.01;39.32;102057.78;5052431;28;20116;-62
2023/06/04 08:57:20;;;;;;;11.23;3.00;;;;;;;20.06;38.84;102055.91;5051418;28;20025;-64
2023/06/04 08:59:46;;;;;;;7.90;2.70;;;;;;;20.19;39.35;102051.22;5052584;28;20044;-62
2023/06/04 09:02:13;;;;;;;8.45;2.72;;;;;;;20.31;38.56;102055.50;5052908;28;20031;-63
2023/06/04 09:04:40;;;;;;;10.48;2.80;;;;;;;20.33;36.88;102054.56;5052646;28;20033;-62
2023/06/04 09:07:08;;;;;;;10.10;3.15;;;;;;;20.55;38.81;102057.75;5052593;28;20021;-62
2023/06/04 09:09:38;;;;;;;8.60;2.85;;;;;;;20.71;37.27;102058.38;5048671;28;20079;-62
2023/06/04 09:12:07;;;;;;;10.82;2.92;;;;;;;20.85;36.32;102052.75;5048724;28;20032;-62
2023/06/04 09:14:33;;;;;;;8.63;2.60;;;;;;;21.22;37.34;102060.06;5048357;28;20395;-62
2023/06/04 09:16:59;;;;;;;8.48;2.60;;;;;;;21.31;34.33;102050.03;5051042;28;20033;-62
2023/06/04 09:19:24;;;;;;;11.13;2.35;;;;;;;21.29;35.28;102052.75;5052559;28;20029;-63
2023/06/04 09:21:50;;;;;;;8.57;2.63;;;;;;;21.40;34.30;102055.19;5052397;28;20033;-63
2023/06/04 09:24:15;;;;;;;8.45;2.40;;;;;;;21.57;33.61;102054.88;5052216;28;20021;-63
2023/06/04 09:26:41;;;;;;;9.15;2.83;;;;;;;21.84;34.31;102055.13;5052616;28;20044;-70
2023/06/04 09:29:06;;;;;;;6.13;2.45;;;;;;;21.80;33.00;102054.34;5052342;28;20104;-75
2023/06/04 09:31:40;;;;;;;9.50;2.60;;;;;;;21.84;32.86;102056.00;5052234;28;20384;-70
2023/06/04 09:34:06;;;;;;;9.38;2.53;;;;;;;21.93;33.39;102055.81;5048538;28;20083;-72
2023/06/04 09:36:33;;;;;;;6.40;2.47;;;;;;;22.07;32.87;102050.06;5052162;28;20040;-72
2023/06/04 09:38:58;;;;;;;7.53;2.40;;;;;;;22.28;33.61;102048.66;5052425;28;20128;-71
2023/06/04 09:41:25;;;;;;;8.32;2.50;;;;;;;22.43;32.75;102041.13;5052432;28;20487;-75
2023/06/04 09:43:59;;;;;;;11.73;2.85;;;;;;;22.50;31.11;102045.44;5052266;28;20065;-76
2023/06/04 09:46:25;;;;;;;7.55;2.50;;;;;;;22.57;32.49;102052.44;5052021;28;20032;-73
2023/06/04 09:49:00;;;;;;;5.30;2.30;;;;;;;22.75;33.06;102055.56;5052184;28;20033;-70
2023/06/04 09:51:26;;;;;;;11.65;2.47;;;;;;;22.82;31.62;102051.75;5052162;28;20490;-73
2023/06/04 09:54:10;;;;;;;7.55;2.50;;;;;;;23.00;32.56;102053.03;5051883;28;20033;-76
2023/06/04 09:56:41;;;;;;;10.80;2.80;;;;;;;23.20;31.40;102051.59;5048220;28;20052;-71
2023/06/04 09:59:09;;;;;;;6.13;2.25;;;;;;;23.62;31.18;102044.03;5050575;28;20108;-68
2023/06/04 10:01:38;;;;;;;12.25;2.60;;;;;;;24.20;30.75;102040.34;5052261;28;20028;-71
2023/06/04 10:04:07;;;;;;;7.00;2.20;;;;;;;25.34;28.37;102048.94;5051513;28;20704;-69
2023/06/04 10:06:34;;;;;;;6.60;2.28;;;;;;;27.04;26.43;102037.25;5055641;28;20036;-73
2023/06/04 10:09:05;;;;;;;8.40;2.42;;;;;;;28.39;25.38;102049.75;5055933;28;20430;-74
2023/06/04 10:11:35;;;;;;;9.15;2.22;;;;;;;29.53;24.72;102041.78;5055779;28;20092;-66
2023/06/04 10:14:18;;;;;;;8.13;2.38;;;;;;;30.50;22.67;102047.97;5055269;28;20037;-68
2023/06/04 10:16:45;;;;;;;7.32;2.38;;;;;;;30.89;21.54;102047.34;5052837;28;20050;-73
2023/06/04 10:19:11;;;;;;;8.63;2.40;;;;;;;30.91;21.47;102042.66;5055790;28;20025;-76
2023/06/04 10:21:37;;;;;;;10.38;2.38;;;;;;;31.18;21.69;102050.09;5055565;28;20476;-73
2023/06/04 10:24:03;;;;;;;7.85;2.42;;;;;;;31.33;21.64;102050.94;5055241;28;20036;-74
2023/06/04 10:26:30;;;;;;;7.78;2.35;;;;;;;31.98;20.84;102052.19;5055588;28;20086;-77
2023/06/04 10:28:57;;;;;;;6.22;2.20;;;;;;;32.26;20.33;102050.31;5055319;28;20033;-65
2023/06/04 10:31:22;;;;;;;5.72;2.30;;;;;;;32.64;19.57;102042.16;5055074;28;20033;-71
2023/06/04 10:33:48;;;;;;;5.68;2.15;;;;;;;32.73;19.82;102046.13;5054958;28;20094;-77
2023/06/04 10:36:21;;;;;;;7.53;2.30;;;;;;;32.35;19.88;102049.69;5055009;28;20124;-72
2023/06/04 10:38:47;;;;;;;7.30;2.20;;;;;;;31.97;19.15;102047.69;5054954;28;20044;-79
2023/06/04 10:41:16;;;;;;;5.93;2.13;;;;;;;31.86;19.00;102045.66;5055151;28;20360;-71
2023/06/04 10:43:43;;;;;;;7.75;2.17;;;;;;;32.73;18.87;102046.13;5055195;28;20383;-77
2023/06/04 10:46:19;;;;;;;6.65;2.20;;;;;;;33.62;19.30;102049.72;5054955;28;20118;-76
2023/06/04 10:48:49;;;;;;;6.85;2.40;;;;;;;34.10;18.89;102029.69;5052412;28;20033;-74
2023/06/04 10:51:16;;;;;;;9.18;2.30;;;;;;;33.66;18.83;102042.16;5055151;28;20021;-75
2023/06/04 10:53:42;;;;;;;6.38;2.30;;;;;;;34.42;18.26;102047.41;5054618;28;20021;-73
2023/06/04 10:56:07;;;;;;;7.82;2.40;;;;;;;34.78;18.00;102039.97;5054599;28;20040;-77
2023/06/04 10:58:34;;;;;;;6.20;2.17;;;;;;;34.48;18.53;102050.53;5054737;28;20104;-68
2023/06/04 11:00:59;;;;;;;5.82;2.22;;;;;;;34.74;17.64;102045.69;5054405;28;20116;-77
2023/06/04 11:03:36;;;;;;;6.28;2.40;;;;;;;34.80;18.29;102051.75;5054505;28;20027;-75
2023/06/04 11:06:01;;;;;;;7.30;2.30;;;;;;;34.57;17.49;102040.69;5054437;28;20489;-75
2023/06/04 11:08:29;;;;;;;6.90;2.28;;;;;;;34.85;18.00;102044.88;5054642;28;20052;-72
2023/06/04 11:10:54;;;;;;;8.48;2.30;;;;;;;35.30;17.39;102048.66;5053803;28;20104;-79
2023/06/04 11:13:25;;;;;;;8.43;2.30;;;;;;;35.40;16.92;102039.53;5054278;28;20032;-71